sensor_id;sensor_type;location;lat;lon;timestamp;P1;durP1;ratioP1;P2;durP2;ratioP2
61389;SDS011;47260;48.274;19.814;2023-05-09T00:01:05;5.28;;;4.70;;
61389;SDS011;47260;48.274;19.814;2023-05-09T00:02:37;5.95;;;4.88;;
61389;SDS011;47260;48.274;19.814;2023-05-09T00:04:08;5.43;;;4.47;;
61389;SDS011;47260;48.274;19.814;2023-05-09T00:05:40;6.85;;;5.53;;
61389;SDS011;47260;48.274;19.814;2023-05-09T00:07:12;6.85;;;4.97;;
61389;SDS011;47260;48.274;19.814;2023-05-09T00:08:43;7.05;;;5.45;;
61389;SDS011;47260;48.274;19.814;2023-05-09T00:10:15;6.53;;;5.07;;
61389;SDS011;47260;48.274;19.814;2023-05-09T00:11:47;6.65;;;4.88;;
61389;SDS011;47260;48.274;19.814;2023-05-09T00:13:19;5.32;;;4.82;;
61389;SDS011;47260;48.274;19.814;2023-05-09T00:14:50;6.97;;;4.93;;
61389;SDS011;47260;48.274;19.814;2023-05-09T00:16:23;6.40;;;5.10;;
61389;SDS011;47260;48.274;19.814;2023-05-09T00:17:55;6.32;;;5.47;;
61389;SDS011;47260;48.274;19.814;2023-05-09T00:19:26;6.15;;;5.25;;
61389;SDS011;47260;48.274;19.814;2023-05-09T00:20:57;7.75;;;5.00;;
61389;SDS011;47260;48.274;19.814;2023-05-09T00:22:29;6.70;;;4.75;;
61389;SDS011;47260;48.274;19.814;2023-05-09T00:24:00;5.43;;;4.55;;
61389;SDS011;47260;48.274;19.814;2023-05-09T00:25:32;7.25;;;4.88;;
61389;SDS011;47260;48.274;19.814;2023-05-09T00:27:05;5.22;;;4.72;;
61389;SDS011;47260;48.274;19.814;2023-05-09T00:28:36;6.72;;;5.22;;
61389;SDS011;47260;48.274;19.814;2023-05-09T00:30:08;5.10;;;4.43;;
61389;SDS011;47260;48.274;19.814;2023-05-09T00:31:39;5.63;;;4.88;;
61389;SDS011;47260;48.274;19.814;2023-05-09T00:33:10;7.10;;;5.22;;
61389;SDS011;47260;48.274;19.814;2023-05-09T00:34:42;5.63;;;4.80;;
61389;SDS011;47260;48.274;19.814;2023-05-09T00:36:14;6.22;;;5.63;;
61389;SDS011;47260;48.274;19.814;2023-05-09T00:37:45;7.15;;;5.40;;
61389;SDS011;47260;48.274;19.814;2023-05-09T00:39:17;5.68;;;5.18;;
61389;SDS011;47260;48.274;19.814;2023-05-09T00:40:49;6.40;;;5.20;;
61389;SDS011;47260;48.274;19.814;2023-05-09T00:42:22;8.55;;;5.25;;
61389;SDS011;47260;48.274;19.814;2023-05-09T00:43:52;6.95;;;5.13;;
61389;SDS011;47260;48.274;19.814;2023-05-09T00:45:24;5.65;;;5.13;;
61389;SDS011;47260;48.274;19.814;2023-05-09T00:46:55;5.97;;;5.38;;
61389;SDS011;47260;48.274;19.814;2023-05-09T00:48:27;7.80;;;5.35;;
61389;SDS011;47260;48.274;19.814;2023-05-09T00:50:00;6.43;;;5.35;;
61389;SDS011;47260;48.274;19.814;2023-05-09T00:51:32;6.22;;;5.55;;
61389;SDS011;47260;48.274;19.814;2023-05-09T00:53:03;9.05;;;5.70;;
61389;SDS011;47260;48.274;19.814;2023-05-09T00:54:35;6.97;;;5.57;;
61389;SDS011;47260;48.274;19.814;2023-05-09T00:56:07;8.20;;;5.90;;
61389;SDS011;47260;48.274;19.814;2023-05-09T00:57:41;7.50;;;6.10;;
61389;SDS011;47260;48.274;19.814;2023-05-09T00:59:11;8.48;;;6.40;;
61389;SDS011;47260;48.274;19.814;2023-05-09T01:00:43;8.75;;;6.55;;
61389;SDS011;47260;48.274;19.814;2023-05-09T01:02:15;9.05;;;6.65;;
61389;SDS011;47260;48.274;19.814;2023-05-09T01:03:47;7.20;;;5.57;;
61389;SDS011;47260;48.274;19.814;2023-05-09T01:05:18;8.45;;;6.22;;
61389;SDS011;47260;48.274;19.814;2023-05-09T01:06:51;8.02;;;6.55;;
61389;SDS011;47260;48.274;19.814;2023-05-09T01:08:34;8.80;;;6.35;;
61389;SDS011;47260;48.274;19.814;2023-05-09T01:10:15;7.53;;;6.63;;
61389;SDS011;47260;48.274;19.814;2023-05-09T01:11:54;7.50;;;5.90;;
61389;SDS011;47260;48.274;19.814;2023-05-09T01:13:36;8.63;;;6.22;;
61389;SDS011;47260;48.274;19.814;2023-05-09T01:15:20;7.43;;;5.90;;
61389;SDS011;47260;48.274;19.814;2023-05-09T01:17:00;9.27;;;5.60;;
61389;SDS011;47260;48.274;19.814;2023-05-09T01:18:37;7.68;;;6.20;;
61389;SDS011;47260;48.274;19.814;2023-05-09T01:20:15;5.75;;;5.07;;
61389;SDS011;47260;48.274;19.814;2023-05-09T01:21:53;8.40;;;5.47;;
61389;SDS011;47260;48.274;19.814;2023-05-09T01:27:27;7.35;;;6.07;;
61389;SDS011;47260;48.274;19.814;2023-05-09T01:29:16;7.13;;;5.47;;
61389;SDS011;47260;48.274;19.814;2023-05-09T01:31:01;8.30;;;5.60;;
61389;SDS011;47260;48.274;19.814;2023-05-09T01:32:33;7.95;;;5.63;;
61389;SDS011;47260;48.274;19.814;2023-05-09T01:34:08;7.25;;;5.25;;
61389;SDS011;47260;48.274;19.814;2023-05-09T01:35:41;7.55;;;5.97;;
61389;SDS011;47260;48.274;19.814;2023-05-09T01:37:17;8.73;;;5.90;;
61389;SDS011;47260;48.274;19.814;2023-05-09T01:38:50;8.57;;;6.40;;
61389;SDS011;47260;48.274;19.814;2023-05-09T01:40:22;6.43;;;5.35;;
61389;SDS011;47260;48.274;19.814;2023-05-09T01:41:59;8.55;;;5.30;;
61389;SDS011;47260;48.274;19.814;2023-05-09T01:43:32;9.40;;;6.07;;
61389;SDS011;47260;48.274;19.814;2023-05-09T01:45:08;6.82;;;5.32;;
61389;SDS011;47260;48.274;19.814;2023-05-09T01:46:42;6.97;;;5.57;;
61389;SDS011;47260;48.274;19.814;2023-05-09T01:48:15;7.38;;;5.85;;
61389;SDS011;47260;48.274;19.814;2023-05-09T01:49:47;7.50;;;6.55;;
61389;SDS011;47260;48.274;19.814;2023-05-09T01:51:19;8.77;;;5.88;;
61389;SDS011;47260;48.274;19.814;2023-05-09T01:52:52;6.75;;;5.70;;
61389;SDS011;47260;48.274;19.814;2023-05-09T01:54:26;10.13;;;5.97;;
61389;SDS011;47260;48.274;19.814;2023-05-09T01:55:58;7.00;;;5.20;;
61389;SDS011;47260;48.274;19.814;2023-05-09T01:57:31;7.72;;;6.18;;
61389;SDS011;47260;48.274;19.814;2023-05-09T01:59:04;6.78;;;6.07;;
61389;SDS011;47260;48.274;19.814;2023-05-09T02:00:39;6.05;;;5.00;;
61389;SDS011;47260;48.274;19.814;2023-05-09T02:02:11;6.07;;;5.05;;
61389;SDS011;47260;48.274;19.814;2023-05-09T02:03:43;7.28;;;6.15;;
61389;SDS011;47260;48.274;19.814;2023-05-09T02:05:15;8.90;;;6.60;;
61389;SDS011;47260;48.274;19.814;2023-05-09T02:06:48;6.97;;;6.22;;
61389;SDS011;47260;48.274;19.814;2023-05-09T02:08:21;7.13;;;6.00;;
61389;SDS011;47260;48.274;19.814;2023-05-09T02:09:53;8.38;;;6.78;;
61389;SDS011;47260;48.274;19.814;2023-05-09T02:11:25;7.68;;;6.90;;
61389;SDS011;47260;48.274;19.814;2023-05-09T02:12:57;7.07;;;6.13;;
61389;SDS011;47260;48.274;19.814;2023-05-09T02:14:29;7.45;;;6.68;;
61389;SDS011;47260;48.274;19.814;2023-05-09T02:16:01;7.78;;;6.07;;
61389;SDS011;47260;48.274;19.814;2023-05-09T02:17:33;7.95;;;5.93;;
61389;SDS011;47260;48.274;19.814;2023-05-09T02:19:04;8.15;;;5.95;;
61389;SDS011;47260;48.274;19.814;2023-05-09T02:20:36;8.70;;;6.63;;
61389;SDS011;47260;48.274;19.814;2023-05-09T02:22:06;11.40;;;6.38;;
61389;SDS011;47260;48.274;19.814;2023-05-09T02:23:38;7.60;;;5.55;;
61389;SDS011;47260;48.274;19.814;2023-05-09T02:25:09;8.30;;;6.72;;
61389;SDS011;47260;48.274;19.814;2023-05-09T02:26:44;7.38;;;6.05;;
61389;SDS011;47260;48.274;19.814;2023-05-09T02:28:15;8.60;;;6.47;;
61389;SDS011;47260;48.274;19.814;2023-05-09T02:29:49;7.90;;;5.70;;
61389;SDS011;47260;48.274;19.814;2023-05-09T02:31:26;8.98;;;6.15;;
61389;SDS011;47260;48.274;19.814;2023-05-09T02:33:01;7.43;;;5.93;;
61389;SDS011;47260;48.274;19.814;2023-05-09T02:34:35;7.32;;;5.95;;
61389;SDS011;47260;48.274;19.814;2023-05-09T02:36:07;7.55;;;5.93;;
61389;SDS011;47260;48.274;19.814;2023-05-09T02:37:39;9.07;;;6.57;;
61389;SDS011;47260;48.274;19.814;2023-05-09T02:39:11;9.35;;;6.55;;
61389;SDS011;47260;48.274;19.814;2023-05-09T02:40:42;7.85;;;6.18;;
61389;SDS011;47260;48.274;19.814;2023-05-09T02:42:17;7.97;;;6.65;;
61389;SDS011;47260;48.274;19.814;2023-05-09T02:43:51;6.95;;;5.43;;
61389;SDS011;47260;48.274;19.814;2023-05-09T02:45:22;7.88;;;6.47;;
61389;SDS011;47260;48.274;19.814;2023-05-09T02:46:55;7.75;;;6.55;;
61389;SDS011;47260;48.274;19.814;2023-05-09T02:48:27;9.32;;;6.30;;
61389;SDS011;47260;48.274;19.814;2023-05-09T02:49:58;9.40;;;6.13;;
61389;SDS011;47260;48.274;19.814;2023-05-09T02:51:30;7.15;;;5.85;;
61389;SDS011;47260;48.274;19.814;2023-05-09T02:53:02;7.70;;;6.00;;
61389;SDS011;47260;48.274;19.814;2023-05-09T02:54:34;7.57;;;5.65;;
61389;SDS011;47260;48.274;19.814;2023-05-09T02:56:05;8.52;;;6.45;;
61389;SDS011;47260;48.274;19.814;2023-05-09T02:57:37;7.53;;;6.43;;
61389;SDS011;47260;48.274;19.814;2023-05-09T02:59:09;7.18;;;5.55;;
61389;SDS011;47260;48.274;19.814;2023-05-09T03:00:40;7.03;;;5.28;;
61389;SDS011;47260;48.274;19.814;2023-05-09T03:02:14;8.32;;;6.25;;
61389;SDS011;47260;48.274;19.814;2023-05-09T03:03:45;7.60;;;5.45;;
61389;SDS011;47260;48.274;19.814;2023-05-09T03:05:18;7.43;;;5.50;;
61389;SDS011;47260;48.274;19.814;2023-05-09T03:06:50;7.38;;;5.70;;
61389;SDS011;47260;48.274;19.814;2023-05-09T03:08:22;7.50;;;6.15;;
61389;SDS011;47260;48.274;19.814;2023-05-09T03:09:52;8.65;;;5.65;;
61389;SDS011;47260;48.274;19.814;2023-05-09T03:11:24;7.28;;;5.57;;
61389;SDS011;47260;48.274;19.814;2023-05-09T03:12:56;9.77;;;6.20;;
61389;SDS011;47260;48.274;19.814;2023-05-09T03:14:28;7.32;;;5.93;;
61389;SDS011;47260;48.274;19.814;2023-05-09T03:15:59;8.98;;;5.82;;
61389;SDS011;47260;48.274;19.814;2023-05-09T03:17:32;10.20;;;6.30;;
61389;SDS011;47260;48.274;19.814;2023-05-09T03:19:03;10.10;;;6.70;;
61389;SDS011;47260;48.274;19.814;2023-05-09T03:20:34;9.05;;;6.22;;
61389;SDS011;47260;48.274;19.814;2023-05-09T03:22:07;9.60;;;6.03;;
61389;SDS011;47260;48.274;19.814;2023-05-09T03:23:45;7.68;;;5.82;;
61389;SDS011;47260;48.274;19.814;2023-05-09T03:25:17;9.50;;;5.28;;
61389;SDS011;47260;48.274;19.814;2023-05-09T03:26:48;7.53;;;5.63;;
61389;SDS011;47260;48.274;19.814;2023-05-09T03:28:20;9.18;;;6.15;;
61389;SDS011;47260;48.274;19.814;2023-05-09T03:29:52;6.30;;;5.20;;
61389;SDS011;47260;48.274;19.814;2023-05-09T03:31:23;6.13;;;5.45;;
61389;SDS011;47260;48.274;19.814;2023-05-09T03:32:57;7.75;;;5.50;;
61389;SDS011;47260;48.274;19.814;2023-05-09T03:34:29;7.93;;;6.00;;
61389;SDS011;47260;48.274;19.814;2023-05-09T03:36:02;9.30;;;6.32;;
61389;SDS011;47260;48.274;19.814;2023-05-09T03:37:32;7.75;;;6.03;;
61389;SDS011;47260;48.274;19.814;2023-05-09T03:39:04;7.72;;;6.47;;
61389;SDS011;47260;48.274;19.814;2023-05-09T03:40:35;7.57;;;5.70;;
61389;SDS011;47260;48.274;19.814;2023-05-09T03:42:12;6.38;;;5.78;;
61389;SDS011;47260;48.274;19.814;2023-05-09T03:43:46;6.75;;;5.63;;
61389;SDS011;47260;48.274;19.814;2023-05-09T03:45:18;7.60;;;5.72;;
61389;SDS011;47260;48.274;19.814;2023-05-09T03:46:50;6.82;;;6.10;;
61389;SDS011;47260;48.274;19.814;2023-05-09T03:48:24;7.05;;;6.22;;
61389;SDS011;47260;48.274;19.814;2023-05-09T03:49:55;7.43;;;5.78;;
61389;SDS011;47260;48.274;19.814;2023-05-09T03:51:27;7.53;;;6.00;;
61389;SDS011;47260;48.274;19.814;2023-05-09T03:53:00;7.50;;;5.43;;
61389;SDS011;47260;48.274;19.814;2023-05-09T03:54:31;7.70;;;5.50;;
61389;SDS011;47260;48.274;19.814;2023-05-09T03:56:04;9.60;;;6.40;;
61389;SDS011;47260;48.274;19.814;2023-05-09T03:57:42;7.30;;;5.43;;
61389;SDS011;47260;48.274;19.814;2023-05-09T03:59:14;8.02;;;5.07;;
61389;SDS011;47260;48.274;19.814;2023-05-09T04:00:46;6.45;;;5.15;;
61389;SDS011;47260;48.274;19.814;2023-05-09T04:02:23;6.57;;;5.47;;
61389;SDS011;47260;48.274;19.814;2023-05-09T04:03:56;7.15;;;5.30;;
61389;SDS011;47260;48.274;19.814;2023-05-09T04:05:29;7.93;;;5.78;;
61389;SDS011;47260;48.274;19.814;2023-05-09T04:07:03;6.07;;;5.20;;
61389;SDS011;47260;48.274;19.814;2023-05-09T04:08:35;5.68;;;5.05;;
61389;SDS011;47260;48.274;19.814;2023-05-09T04:10:08;6.55;;;4.97;;
61389;SDS011;47260;48.274;19.814;2023-05-09T04:11:40;7.80;;;5.05;;
61389;SDS011;47260;48.274;19.814;2023-05-09T04:13:14;5.88;;;5.18;;
61389;SDS011;47260;48.274;19.814;2023-05-09T04:14:46;6.07;;;5.13;;
61389;SDS011;47260;48.274;19.814;2023-05-09T04:16:17;5.60;;;5.00;;
61389;SDS011;47260;48.274;19.814;2023-05-09T04:17:48;5.93;;;5.32;;
61389;SDS011;47260;48.274;19.814;2023-05-09T04:19:21;7.05;;;4.88;;
61389;SDS011;47260;48.274;19.814;2023-05-09T04:20:53;7.80;;;6.00;;
61389;SDS011;47260;48.274;19.814;2023-05-09T04:22:25;6.80;;;5.15;;
61389;SDS011;47260;48.274;19.814;2023-05-09T04:23:56;6.18;;;5.30;;
61389;SDS011;47260;48.274;19.814;2023-05-09T04:25:36;6.25;;;5.65;;
61389;SDS011;47260;48.274;19.814;2023-05-09T04:27:07;6.95;;;5.43;;
61389;SDS011;47260;48.274;19.814;2023-05-09T04:28:39;8.90;;;6.03;;
61389;SDS011;47260;48.274;19.814;2023-05-09T04:30:12;8.82;;;6.03;;
61389;SDS011;47260;48.274;19.814;2023-05-09T04:31:46;15.02;;;6.10;;
61389;SDS011;47260;48.274;19.814;2023-05-09T04:33:17;6.03;;;5.20;;
61389;SDS011;47260;48.274;19.814;2023-05-09T04:34:50;6.40;;;5.53;;
61389;SDS011;47260;48.274;19.814;2023-05-09T04:36:27;9.45;;;5.28;;
61389;SDS011;47260;48.274;19.814;2023-05-09T04:38:01;6.88;;;5.45;;
61389;SDS011;47260;48.274;19.814;2023-05-09T04:39:34;7.63;;;5.85;;
61389;SDS011;47260;48.274;19.814;2023-05-09T04:41:14;7.13;;;5.75;;
61389;SDS011;47260;48.274;19.814;2023-05-09T04:42:46;7.03;;;5.22;;
61389;SDS011;47260;48.274;19.814;2023-05-09T04:44:17;7.45;;;5.65;;
61389;SDS011;47260;48.274;19.814;2023-05-09T04:45:49;7.18;;;5.53;;
61389;SDS011;47260;48.274;19.814;2023-05-09T04:47:20;6.05;;;5.20;;
61389;SDS011;47260;48.274;19.814;2023-05-09T04:48:52;6.05;;;5.50;;
61389;SDS011;47260;48.274;19.814;2023-05-09T04:50:25;6.28;;;5.68;;
61389;SDS011;47260;48.274;19.814;2023-05-09T04:51:57;7.25;;;5.70;;
61389;SDS011;47260;48.274;19.814;2023-05-09T04:53:29;7.70;;;6.78;;
61389;SDS011;47260;48.274;19.814;2023-05-09T04:55:01;6.90;;;6.20;;
61389;SDS011;47260;48.274;19.814;2023-05-09T04:56:37;8.23;;;6.70;;
61389;SDS011;47260;48.274;19.814;2023-05-09T04:58:09;8.18;;;6.60;;
61389;SDS011;47260;48.274;19.814;2023-05-09T04:59:41;8.40;;;6.95;;
61389;SDS011;47260;48.274;19.814;2023-05-09T05:01:16;10.02;;;7.22;;
61389;SDS011;47260;48.274;19.814;2023-05-09T05:02:48;8.75;;;7.20;;
61389;SDS011;47260;48.274;19.814;2023-05-09T05:04:21;9.63;;;8.57;;
61389;SDS011;47260;48.274;19.814;2023-05-09T05:05:54;8.80;;;7.88;;
61389;SDS011;47260;48.274;19.814;2023-05-09T05:07:25;10.50;;;9.40;;
61389;SDS011;47260;48.274;19.814;2023-05-09T05:08:56;12.35;;;8.85;;
61389;SDS011;47260;48.274;19.814;2023-05-09T05:10:28;9.82;;;8.05;;
61389;SDS011;47260;48.274;19.814;2023-05-09T05:12:06;7.60;;;6.85;;
61389;SDS011;47260;48.274;19.814;2023-05-09T05:13:39;11.75;;;7.60;;
61389;SDS011;47260;48.274;19.814;2023-05-09T05:15:11;8.00;;;6.78;;
61389;SDS011;47260;48.274;19.814;2023-05-09T05:16:44;11.25;;;7.70;;
61389;SDS011;47260;48.274;19.814;2023-05-09T05:18:16;9.13;;;6.85;;
61389;SDS011;47260;48.274;19.814;2023-05-09T05:19:48;8.57;;;6.68;;
61389;SDS011;47260;48.274;19.814;2023-05-09T05:21:21;8.90;;;7.90;;
61389;SDS011;47260;48.274;19.814;2023-05-09T05:22:52;8.88;;;6.93;;
61389;SDS011;47260;48.274;19.814;2023-05-09T05:24:24;9.38;;;7.82;;
61389;SDS011;47260;48.274;19.814;2023-05-09T05:25:56;7.88;;;7.07;;
61389;SDS011;47260;48.274;19.814;2023-05-09T05:27:28;10.30;;;8.20;;
61389;SDS011;47260;48.274;19.814;2023-05-09T05:29:00;11.05;;;8.05;;
61389;SDS011;47260;48.274;19.814;2023-05-09T05:30:32;10.48;;;8.15;;
61389;SDS011;47260;48.274;19.814;2023-05-09T05:32:04;10.07;;;8.38;;
61389;SDS011;47260;48.274;19.814;2023-05-09T05:33:36;9.95;;;7.40;;
61389;SDS011;47260;48.274;19.814;2023-05-09T05:35:08;8.00;;;6.20;;
61389;SDS011;47260;48.274;19.814;2023-05-09T05:36:42;7.20;;;6.18;;
61389;SDS011;47260;48.274;19.814;2023-05-09T05:38:14;7.35;;;5.05;;
61389;SDS011;47260;48.274;19.814;2023-05-09T05:39:49;6.93;;;5.80;;
61389;SDS011;47260;48.274;19.814;2023-05-09T05:41:21;7.20;;;5.43;;
61389;SDS011;47260;48.274;19.814;2023-05-09T05:42:53;7.45;;;5.85;;
61389;SDS011;47260;48.274;19.814;2023-05-09T05:44:26;6.68;;;5.32;;
61389;SDS011;47260;48.274;19.814;2023-05-09T05:45:57;5.88;;;5.28;;
61389;SDS011;47260;48.274;19.814;2023-05-09T05:47:31;7.20;;;6.03;;
61389;SDS011;47260;48.274;19.814;2023-05-09T05:49:03;6.80;;;5.65;;
61389;SDS011;47260;48.274;19.814;2023-05-09T05:50:37;6.68;;;6.05;;
61389;SDS011;47260;48.274;19.814;2023-05-09T05:52:10;6.97;;;5.95;;
61389;SDS011;47260;48.274;19.814;2023-05-09T05:53:41;8.23;;;6.20;;
61389;SDS011;47260;48.274;19.814;2023-05-09T05:55:13;6.55;;;5.57;;
61389;SDS011;47260;48.274;19.814;2023-05-09T05:56:45;7.20;;;5.45;;
61389;SDS011;47260;48.274;19.814;2023-05-09T05:58:17;9.10;;;6.22;;
61389;SDS011;47260;48.274;19.814;2023-05-09T05:59:49;8.35;;;6.00;;
61389;SDS011;47260;48.274;19.814;2023-05-09T06:01:21;10.93;;;6.78;;
61389;SDS011;47260;48.274;19.814;2023-05-09T06:02:53;6.25;;;5.15;;
61389;SDS011;47260;48.274;19.814;2023-05-09T06:04:42;6.00;;;5.30;;
61389;SDS011;47260;48.274;19.814;2023-05-09T06:06:14;6.38;;;4.57;;
61389;SDS011;47260;48.274;19.814;2023-05-09T06:07:47;6.57;;;4.88;;
61389;SDS011;47260;48.274;19.814;2023-05-09T06:09:19;5.93;;;5.30;;
61389;SDS011;47260;48.274;19.814;2023-05-09T06:10:51;6.30;;;4.88;;
61389;SDS011;47260;48.274;19.814;2023-05-09T06:12:22;5.93;;;4.60;;
61389;SDS011;47260;48.274;19.814;2023-05-09T06:13:54;6.15;;;4.90;;
61389;SDS011;47260;48.274;19.814;2023-05-09T06:15:26;8.23;;;4.32;;
61389;SDS011;47260;48.274;19.814;2023-05-09T06:16:58;5.40;;;4.53;;
61389;SDS011;47260;48.274;19.814;2023-05-09T06:18:33;6.75;;;4.43;;
61389;SDS011;47260;48.274;19.814;2023-05-09T06:20:06;4.78;;;4.25;;
61389;SDS011;47260;48.274;19.814;2023-05-09T06:21:38;5.70;;;4.40;;
61389;SDS011;47260;48.274;19.814;2023-05-09T06:23:11;5.53;;;4.28;;
61389;SDS011;47260;48.274;19.814;2023-05-09T06:24:43;6.03;;;4.00;;
61389;SDS011;47260;48.274;19.814;2023-05-09T06:26:15;7.65;;;5.25;;
61389;SDS011;47260;48.274;19.814;2023-05-09T06:27:47;4.75;;;4.35;;
61389;SDS011;47260;48.274;19.814;2023-05-09T06:29:19;5.53;;;4.45;;
61389;SDS011;47260;48.274;19.814;2023-05-09T06:30:50;7.32;;;5.07;;
61389;SDS011;47260;48.274;19.814;2023-05-09T06:32:22;4.40;;;4.03;;
61389;SDS011;47260;48.274;19.814;2023-05-09T06:33:54;4.82;;;4.43;;
61389;SDS011;47260;48.274;19.814;2023-05-09T06:35:26;5.43;;;4.88;;
61389;SDS011;47260;48.274;19.814;2023-05-09T06:36:58;5.22;;;4.72;;
61389;SDS011;47260;48.274;19.814;2023-05-09T06:38:31;5.05;;;4.45;;
61389;SDS011;47260;48.274;19.814;2023-05-09T06:40:04;5.45;;;4.38;;
61389;SDS011;47260;48.274;19.814;2023-05-09T06:41:37;6.70;;;4.57;;
61389;SDS011;47260;48.274;19.814;2023-05-09T06:43:09;4.97;;;4.47;;
61389;SDS011;47260;48.274;19.814;2023-05-09T06:44:40;5.43;;;3.97;;
61389;SDS011;47260;48.274;19.814;2023-05-09T06:46:12;5.60;;;4.40;;
61389;SDS011;47260;48.274;19.814;2023-05-09T06:47:44;5.78;;;4.07;;
61389;SDS011;47260;48.274;19.814;2023-05-09T06:49:16;8.05;;;4.60;;
61389;SDS011;47260;48.274;19.814;2023-05-09T06:50:47;5.75;;;4.05;;
61389;SDS011;47260;48.274;19.814;2023-05-09T06:52:19;4.60;;;4.20;;
61389;SDS011;47260;48.274;19.814;2023-05-09T06:53:53;4.68;;;4.10;;
61389;SDS011;47260;48.274;19.814;2023-05-09T06:55:24;5.70;;;5.00;;
61389;SDS011;47260;48.274;19.814;2023-05-09T06:56:56;6.18;;;4.13;;
61389;SDS011;47260;48.274;19.814;2023-05-09T06:58:28;3.80;;;3.50;;
61389;SDS011;47260;48.274;19.814;2023-05-09T06:59:59;5.82;;;4.32;;
61389;SDS011;47260;48.274;19.814;2023-05-09T07:01:31;4.93;;;4.15;;
61389;SDS011;47260;48.274;19.814;2023-05-09T07:03:03;5.05;;;3.92;;
61389;SDS011;47260;48.274;19.814;2023-05-09T07:04:36;4.30;;;3.90;;
61389;SDS011;47260;48.274;19.814;2023-05-09T07:06:08;3.95;;;3.42;;
61389;SDS011;47260;48.274;19.814;2023-05-09T07:07:39;4.90;;;4.38;;
61389;SDS011;47260;48.274;19.814;2023-05-09T07:09:13;5.00;;;4.25;;
61389;SDS011;47260;48.274;19.814;2023-05-09T07:10:46;5.82;;;4.00;;
61389;SDS011;47260;48.274;19.814;2023-05-09T07:12:18;4.47;;;3.97;;
61389;SDS011;47260;48.274;19.814;2023-05-09T07:13:50;3.75;;;3.10;;
61389;SDS011;47260;48.274;19.814;2023-05-09T07:15:21;5.97;;;3.58;;
61389;SDS011;47260;48.274;19.814;2023-05-09T07:16:53;3.50;;;3.20;;
61389;SDS011;47260;48.274;19.814;2023-05-09T07:18:25;4.10;;;3.67;;
61389;SDS011;47260;48.274;19.814;2023-05-09T07:19:57;4.75;;;3.35;;
61389;SDS011;47260;48.274;19.814;2023-05-09T07:21:28;3.90;;;3.33;;
61389;SDS011;47260;48.274;19.814;2023-05-09T07:23:02;4.47;;;3.10;;
61389;SDS011;47260;48.274;19.814;2023-05-09T07:24:36;4.40;;;3.47;;
61389;SDS011;47260;48.274;19.814;2023-05-09T07:26:08;3.50;;;3.08;;
61389;SDS011;47260;48.274;19.814;2023-05-09T07:27:39;4.72;;;3.33;;
61389;SDS011;47260;48.274;19.814;2023-05-09T07:29:11;4.60;;;3.60;;
61389;SDS011;47260;48.274;19.814;2023-05-09T07:30:43;4.40;;;3.15;;
61389;SDS011;47260;48.274;19.814;2023-05-09T07:32:15;4.38;;;3.70;;
61389;SDS011;47260;48.274;19.814;2023-05-09T07:33:46;5.10;;;3.47;;
61389;SDS011;47260;48.274;19.814;2023-05-09T07:35:18;4.68;;;3.83;;
61389;SDS011;47260;48.274;19.814;2023-05-09T07:36:50;3.53;;;3.22;;
61389;SDS011;47260;48.274;19.814;2023-05-09T07:38:22;4.22;;;3.83;;
61389;SDS011;47260;48.274;19.814;2023-05-09T07:39:55;5.00;;;3.47;;
61389;SDS011;47260;48.274;19.814;2023-05-09T07:41:26;5.18;;;3.28;;
61389;SDS011;47260;48.274;19.814;2023-05-09T07:42:58;4.20;;;3.45;;
61389;SDS011;47260;48.274;19.814;2023-05-09T07:44:29;5.43;;;3.35;;
61389;SDS011;47260;48.274;19.814;2023-05-09T07:46:01;4.60;;;4.05;;
61389;SDS011;47260;48.274;19.814;2023-05-09T07:47:33;8.18;;;3.28;;
61389;SDS011;47260;48.274;19.814;2023-05-09T07:49:05;4.57;;;3.58;;
61389;SDS011;47260;48.274;19.814;2023-05-09T07:50:37;6.07;;;3.80;;
61389;SDS011;47260;48.274;19.814;2023-05-09T07:52:08;5.30;;;3.80;;
61389;SDS011;47260;48.274;19.814;2023-05-09T07:53:40;6.70;;;2.97;;
61389;SDS011;47260;48.274;19.814;2023-05-09T07:55:13;3.28;;;2.97;;
61389;SDS011;47260;48.274;19.814;2023-05-09T07:56:45;3.42;;;3.13;;
61389;SDS011;47260;48.274;19.814;2023-05-09T07:58:16;2.75;;;2.25;;
61389;SDS011;47260;48.274;19.814;2023-05-09T07:59:48;2.90;;;2.60;;
61389;SDS011;47260;48.274;19.814;2023-05-09T08:01:20;4.20;;;2.42;;
61389;SDS011;47260;48.274;19.814;2023-05-09T08:02:51;3.15;;;2.72;;
61389;SDS011;47260;48.274;19.814;2023-05-09T08:04:23;2.17;;;1.98;;
61389;SDS011;47260;48.274;19.814;2023-05-09T08:05:55;2.05;;;1.85;;
61389;SDS011;47260;48.274;19.814;2023-05-09T08:07:27;4.65;;;2.50;;
61389;SDS011;47260;48.274;19.814;2023-05-09T08:08:59;2.05;;;1.80;;
61389;SDS011;47260;48.274;19.814;2023-05-09T08:10:32;1.83;;;1.63;;
61389;SDS011;47260;48.274;19.814;2023-05-09T08:12:04;2.05;;;1.75;;
61389;SDS011;47260;48.274;19.814;2023-05-09T08:13:36;2.13;;;1.92;;
61389;SDS011;47260;48.274;19.814;2023-05-09T08:15:08;2.53;;;1.88;;
61389;SDS011;47260;48.274;19.814;2023-05-09T08:16:40;2.90;;;2.17;;
61389;SDS011;47260;48.274;19.814;2023-05-09T08:18:13;3.22;;;1.98;;
61389;SDS011;47260;48.274;19.814;2023-05-09T08:19:45;3.08;;;2.05;;
61389;SDS011;47260;48.274;19.814;2023-05-09T08:21:16;2.00;;;1.77;;
61389;SDS011;47260;48.274;19.814;2023-05-09T08:22:48;2.10;;;1.90;;
61389;SDS011;47260;48.274;19.814;2023-05-09T08:24:20;2.00;;;1.77;;
61389;SDS011;47260;48.274;19.814;2023-05-09T08:25:53;2.47;;;2.17;;
61389;SDS011;47260;48.274;19.814;2023-05-09T08:27:25;2.35;;;2.15;;
61389;SDS011;47260;48.274;19.814;2023-05-09T08:28:57;2.67;;;1.75;;
61389;SDS011;47260;48.274;19.814;2023-05-09T08:30:28;1.67;;;1.58;;
61389;SDS011;47260;48.274;19.814;2023-05-09T08:32:00;2.25;;;1.77;;
61389;SDS011;47260;48.274;19.814;2023-05-09T08:33:32;2.05;;;1.65;;
61389;SDS011;47260;48.274;19.814;2023-05-09T08:35:04;2.28;;;2.05;;
61389;SDS011;47260;48.274;19.814;2023-05-09T08:36:37;1.77;;;1.58;;
61389;SDS011;47260;48.274;19.814;2023-05-09T08:38:10;3.45;;;1.55;;
61389;SDS011;47260;48.274;19.814;2023-05-09T08:39:42;2.40;;;1.73;;
61389;SDS011;47260;48.274;19.814;2023-05-09T08:41:15;2.10;;;1.90;;
61389;SDS011;47260;48.274;19.814;2023-05-09T08:42:47;3.63;;;2.05;;
61389;SDS011;47260;48.274;19.814;2023-05-09T08:44:20;2.00;;;1.80;;
61389;SDS011;47260;48.274;19.814;2023-05-09T08:45:53;1.50;;;1.40;;
61389;SDS011;47260;48.274;19.814;2023-05-09T08:47:29;4.50;;;2.25;;
61389;SDS011;47260;48.274;19.814;2023-05-09T08:49:04;2.35;;;1.58;;
61389;SDS011;47260;48.274;19.814;2023-05-09T08:50:37;3.67;;;1.95;;
61389;SDS011;47260;48.274;19.814;2023-05-09T08:52:09;1.95;;;1.80;;
61389;SDS011;47260;48.274;19.814;2023-05-09T08:53:41;2.67;;;2.00;;
61389;SDS011;47260;48.274;19.814;2023-05-09T08:55:13;2.50;;;2.30;;
61389;SDS011;47260;48.274;19.814;2023-05-09T08:56:47;12.10;;;2.42;;
61389;SDS011;47260;48.274;19.814;2023-05-09T08:58:18;2.70;;;2.22;;
61389;SDS011;47260;48.274;19.814;2023-05-09T08:59:51;4.25;;;2.30;;
61389;SDS011;47260;48.274;19.814;2023-05-09T09:01:23;2.53;;;2.15;;
61389;SDS011;47260;48.274;19.814;2023-05-09T09:02:56;2.50;;;2.10;;
61389;SDS011;47260;48.274;19.814;2023-05-09T09:04:30;3.15;;;1.95;;
61389;SDS011;47260;48.274;19.814;2023-05-09T09:06:03;4.97;;;2.30;;
61389;SDS011;47260;48.274;19.814;2023-05-09T09:07:37;2.60;;;1.80;;
61389;SDS011;47260;48.274;19.814;2023-05-09T09:09:10;2.25;;;2.05;;
61389;SDS011;47260;48.274;19.814;2023-05-09T09:10:43;1.88;;;1.75;;
61389;SDS011;47260;48.274;19.814;2023-05-09T09:12:19;2.05;;;1.85;;
61389;SDS011;47260;48.274;19.814;2023-05-09T09:13:52;1.60;;;1.50;;